Time;durP1;ratioP1;P1;durP2;ratioP2;P2;SDS_P1;SDS_P2;PMS_P1;PMS_P2;Temp;Humidity;BMP_temperature;BMP_pressure;BME280_temperature;BME280_humidity;BME280_pressure;Samples;Min_cycle;Max_cycle;Signal;HPM_P1;HPM_P2
2023/07/06 00:00:53;;;;;;;11.13;3.13;;;;;;;25.70;56.95;98614.91;6246117;23;20573;-85
2023/07/06 00:03:19;;;;;;;9.00;3.37;;;;;;;25.63;56.92;98609.44;6219617;23;20180;-86
2023/07/06 00:05:47;;;;;;;8.40;3.50;;;;;;;25.48;57.54;98614.00;6245956;23;20145;-84
2023/07/06 00:08:14;;;;;;;6.43;3.40;;;;;;;25.39;59.04;98609.75;6219457;23;20194;-84
2023/07/06 00:10:42;;;;;;;7.50;3.70;;;;;;;25.30;59.45;98606.34;6219564;23;20451;-85
2023/07/06 00:13:08;;;;;;;7.23;3.93;;;;;;;25.15;60.12;98605.50;6246058;23;20467;-85
2023/07/06 00:15:34;;;;;;;6.60;3.63;;;;;;;25.10;60.71;98605.25;6245949;23;20160;-85
2023/07/06 00:18:02;;;;;;;7.43;4.00;;;;;;;25.15;60.65;98604.69;6246012;23;20149;-85
2023/07/06 00:20:37;;;;;;;7.83;3.30;;;;;;;25.17;60.59;98616.88;6219631;23;20157;-85
2023/07/06 00:23:04;;;;;;;6.33;3.97;;;;;;;25.10;60.92;98610.59;6246159;23;20144;-85
2023/07/06 00:25:29;;;;;;;6.53;3.77;;;;;;;24.99;61.08;98613.75;6246365;23;20149;-86
2023/07/06 00:27:55;;;;;;;7.63;4.30;;;;;;;25.02;61.47;98608.84;6246629;23;20152;-84
2023/07/06 00:33:15;;;;;;;5.67;3.30;;;;;;;25.03;61.62;98610.50;6246039;23;20134;-84
2023/07/06 00:35:41;;;;;;;5.73;3.73;;;;;;;25.13;61.21;98610.22;6219532;23;20483;-85
2023/07/06 00:38:13;;;;;;;7.20;4.10;;;;;;;25.25;61.01;98614.09;6245926;23;20152;-85
2023/07/06 00:40:41;;;;;;;8.53;3.87;;;;;;;25.32;60.69;98616.88;6219421;23;20171;-85
2023/07/06 00:43:15;;;;;;;6.63;3.00;;;;;;;25.37;59.96;98617.13;6246272;23;20441;-84
2023/07/06 00:45:42;;;;;;;6.37;3.23;;;;;;;25.44;59.44;98610.03;6246843;23;20520;-84
2023/07/06 00:48:21;;;;;;;6.07;3.27;;;;;;;25.39;59.78;98621.28;6219430;23;20514;-85
2023/07/06 00:50:55;;;;;;;5.53;3.30;;;;;;;25.39;58.96;98617.81;6219450;23;20161;-85
2023/07/06 00:53:26;;;;;;;6.57;3.23;;;;;;;25.44;59.27;98607.34;6246607;23;20545;-85
2023/07/06 00:55:51;;;;;;;5.87;3.40;;;;;;;25.48;59.02;98598.75;6219500;23;20152;-85
2023/07/06 00:58:27;;;;;;;6.13;3.40;;;;;;;25.48;58.94;98614.00;6219376;23;20153;-85
2023/07/06 01:00:56;;;;;;;6.00;3.17;;;;;;;25.46;58.58;98610.69;6246585;23;20169;-85
2023/07/06 01:03:22;;;;;;;7.97;3.53;;;;;;;25.45;58.63;98611.66;6219330;23;20180;-85
2023/07/06 01:05:50;;;;;;;4.93;3.20;;;;;;;25.31;59.23;98604.50;6246153;23;20240;-86
2023/07/06 01:08:20;;;;;;;6.53;3.00;;;;;;;25.20;59.28;98615.69;6246059;23;20145;-85
2023/07/06 01:10:46;;;;;;;5.40;3.27;;;;;;;25.22;59.21;98606.44;6246122;23;20149;-85
2023/07/06 01:13:11;;;;;;;4.73;2.70;;;;;;;25.25;59.11;98603.38;6246494;23;20149;-85
2023/07/06 01:15:54;;;;;;;7.30;3.70;;;;;;;25.25;59.63;98607.91;6219211;23;20245;-85
2023/07/06 01:18:33;;;;;;;5.53;2.90;;;;;;;25.30;59.38;98611.69;6246476;23;20134;-86
2023/07/06 01:21:16;;;;;;;8.20;3.80;;;;;;;25.21;59.21;98607.44;6245803;23;20190;-85
2023/07/06 01:23:44;;;;;;;6.70;3.37;;;;;;;25.25;59.39;98603.38;6245793;23;20467;-85
2023/07/06 01:26:25;;;;;;;7.60;3.97;;;;;;;25.26;59.30;98604.22;6219261;23;20581;-85
2023/07/06 01:29:21;;;;;;;6.03;3.30;;;;;;;25.26;59.55;98621.13;6219299;23;20165;-84
2023/07/06 01:31:55;;;;;;;5.03;3.37;;;;;;;25.38;59.22;98621.50;6246088;23;20138;-85
2023/07/06 01:34:35;;;;;;;5.57;3.20;;;;;;;25.30;59.26;98622.44;6246936;23;20476;-85
2023/07/06 01:37:16;;;;;;;6.90;3.83;;;;;;;25.16;59.57;98609.84;6221100;23;20549;-86
2023/07/06 01:39:41;;;;;;;9.00;3.90;;;;;;;25.20;59.54;98613.84;6247694;23;20187;-85
2023/07/06 01:42:12;;;;;;;5.27;2.80;;;;;;;25.15;59.92;98618.09;6221023;23;20149;-86
2023/07/06 01:44:40;;;;;;;6.63;3.20;;;;;;;25.10;59.94;98615.97;6247496;23;20231;-85
2023/07/06 01:47:06;;;;;;;6.60;3.50;;;;;;;24.98;60.61;98623.63;6220899;23;20153;-85
2023/07/06 01:49:33;;;;;;;6.80;3.90;;;;;;;25.03;60.39;98615.88;6220761;23;20255;-84
2023/07/06 01:52:18;;;;;;;6.53;3.77;;;;;;;25.09;60.31;98614.28;6247677;23;20149;-84
2023/07/06 01:54:58;;;;;;;7.87;3.93;;;;;;;25.19;60.13;98622.06;6247711;23;20267;-85
2023/07/06 01:57:35;;;;;;;7.50;3.60;;;;;;;25.14;60.17;98621.78;6248064;23;20152;-85
2023/07/06 02:00:09;;;;;;;6.50;3.90;;;;;;;25.10;60.40;98632.06;6248076;23;20133;-84
2023/07/06 02:02:35;;;;;;;4.83;2.87;;;;;;;25.07;61.02;98626.22;6247672;23;20141;-85
2023/07/06 02:05:02;;;;;;;6.93;3.80;;;;;;;24.98;61.18;98634.34;6220784;23;20168;-85
2023/07/06 02:07:27;;;;;;;5.77;3.40;;;;;;;24.96;61.75;98630.19;6247543;23;20145;-84
2023/07/06 02:09:54;;;;;;;5.70;3.10;;;;;;;24.99;61.51;98636.03;6247448;23;20173;-84
2023/07/06 02:12:20;;;;;;;6.03;3.47;;;;;;;25.07;61.71;98623.53;6247192;23;20145;-85
2023/07/06 02:14:48;;;;;;;5.67;3.43;;;;;;;25.03;61.91;98631.94;6220624;23;20168;-85
2023/07/06 02:17:15;;;;;;;9.93;3.73;;;;;;;25.11;61.70;98632.88;6247510;23;20146;-84
2023/07/06 02:19:40;;;;;;;6.67;3.53;;;;;;;;;;6247470;23;20176;-84
2023/07/06 02:22:05;;;;;;;6.47;3.37;;;;;;;24.96;62.52;98638.25;6247351;23;20145;-84
2023/07/06 02:24:31;;;;;;;6.43;3.50;;;;;;;24.94;62.61;98627.72;6247102;23;20206;-85
2023/07/06 02:26:57;;;;;;;9.10;3.63;;;;;;;24.92;62.67;98629.72;6246999;23;20473;-85
2023/07/06 02:29:22;;;;;;;7.03;3.80;;;;;;;24.99;62.55;98627.16;6220527;23;20177;-85
2023/07/06 02:31:49;;;;;;;6.23;3.40;;;;;;;25.04;62.35;98628.25;6247008;23;20151;-85
2023/07/06 02:34:15;;;;;;;6.87;4.37;;;;;;;24.99;63.23;98636.03;6247666;23;20173;-84
2023/07/06 02:36:40;;;;;;;7.23;3.90;;;;;;;;;;6246958;23;20153;-84
2023/07/06 02:39:06;;;;;;;6.70;3.77;;;;;;;24.98;63.61;98620.94;6246837;23;20638;-84
2023/07/06 02:41:31;;;;;;;7.07;3.97;;;;;;;25.15;63.22;98618.94;6246911;23;20458;-84
2023/07/06 02:43:57;;;;;;;7.77;4.13;;;;;;;25.00;63.92;98621.59;6246833;23;20155;-85
2023/07/06 02:46:23;;;;;;;5.67;3.50;;;;;;;25.14;63.59;98622.63;6220242;23;20153;-84
2023/07/06 02:48:50;;;;;;;7.47;4.17;;;;;;;25.03;63.97;98620.38;6246894;23;20169;-84
2023/07/06 02:51:16;;;;;;;10.77;4.03;;;;;;;25.03;64.25;98623.91;6246984;23;20141;-84
2023/07/06 02:53:41;;;;;;;5.70;3.50;;;;;;;24.94;64.71;98621.50;6246772;23;20172;-84
2023/07/06 02:56:07;;;;;;;5.83;3.77;;;;;;;25.00;64.33;98621.59;6246778;23;20157;-85
2023/07/06 02:58:34;;;;;;;6.13;3.53;;;;;;;25.07;64.40;98626.22;6246691;23;20452;-84
2023/07/06 03:01:00;;;;;;;7.20;3.60;;;;;;;25.05;64.28;98623.75;6246716;23;20149;-84
2023/07/06 03:03:26;;;;;;;9.70;4.40;;;;;;;24.96;64.63;98630.19;6247324;23;20153;-84
2023/07/06 03:05:52;;;;;;;8.70;5.00;;;;;;;25.04;64.58;98628.25;6246569;23;20216;-84
2023/07/06 03:08:19;;;;;;;7.53;4.20;;;;;;;24.99;64.59;98619.09;6246874;23;20467;-85
2023/07/06 03:10:48;;;;;;;7.13;3.90;;;;;;;24.98;64.64;98625.47;6246592;23;20224;-84
2023/07/06 03:13:14;;;;;;;8.77;4.57;;;;;;;24.98;64.87;98617.44;6246564;23;20172;-84
2023/07/06 03:15:41;;;;;;;8.00;3.73;;;;;;;25.02;64.26;98619.59;6246592;23;20156;-84
2023/07/06 03:18:07;;;;;;;7.13;3.83;;;;;;;;;;6246840;23;20191;-84
2023/07/06 03:20:36;;;;;;;9.93;4.17;;;;;;;25.00;64.37;98616.22;6220073;23;20149;-86
2023/07/06 03:23:02;;;;;;;5.90;3.90;;;;;;;25.07;63.70;98612.81;6246481;23;20149;-84
2023/07/06 03:25:28;;;;;;;10.53;4.70;;;;;;;25.10;63.99;98617.81;6219905;23;20153;-84
2023/07/06 03:27:55;;;;;;;6.43;3.87;;;;;;;25.15;63.71;98618.94;6220002;23;20542;-85
2023/07/06 03:30:27;;;;;;;7.13;4.37;;;;;;;24.98;64.13;98618.28;6246328;23;20173;-84
2023/07/06 03:32:54;;;;;;;5.70;3.67;;;;;;;24.91;64.69;98624.56;6219650;23;20545;-84
2023/07/06 03:35:22;;;;;;;10.47;4.33;;;;;;;24.91;64.82;98624.56;6246351;23;20588;-84
2023/07/06 03:37:48;;;;;;;7.67;4.37;;;;;;;24.94;64.46;98621.50;6219828;23;20149;-85
2023/07/06 03:40:14;;;;;;;6.37;3.97;;;;;;;24.89;64.72;98616.72;6219764;23;20199;-85
2023/07/06 03:42:45;;;;;;;8.60;3.83;;;;;;;24.75;64.96;98622.00;6219807;23;20236;-84
2023/07/06 03:45:15;;;;;;;9.63;4.43;;;;;;;24.77;65.19;98626.16;6220196;23;20153;-84
2023/07/06 03:47:43;;;;;;;6.23;4.00;;;;;;;24.96;64.25;98633.72;6246699;23;20153;-83
2023/07/06 03:50:14;;;;;;;6.40;3.33;;;;;;;25.00;64.01;98616.22;6246839;23;20605;-84
2023/07/06 03:52:41;;;;;;;6.17;3.70;;;;;;;24.96;64.46;98622.16;6246256;23;20129;-84
2023/07/06 03:55:12;;;;;;;8.47;4.13;;;;;;;25.04;64.14;98617.53;6219669;23;20192;-86
2023/07/06 03:57:38;;;;;;;9.83;4.67;;;;;;;25.15;64.10;98616.25;6219437;23;20228;-84
2023/07/06 04:00:25;;;;;;;8.30;4.40;;;;;;;25.16;63.53;98620.56;6246156;23;20145;-85
2023/07/06 04:02:52;;;;;;;5.27;3.37;;;;;;;25.01;63.96;98617.91;6245719;23;20149;-84
2023/07/06 04:05:22;;;;;;;6.00;3.87;;;;;;;24.94;64.48;98622.34;6246059;23;20565;-85
2023/07/06 04:07:52;;;;;;;10.47;4.07;;;;;;;24.88;64.65;98625.75;6246071;23;20149;-86
2023/07/06 04:10:19;;;;;;;10.70;4.37;;;;;;;24.84;64.80;98626.31;6246696;23;20192;-85
2023/07/06 04:12:45;;;;;;;8.73;4.17;;;;;;;24.94;64.69;98626.88;6219602;23;20230;-85
2023/07/06 04:15:10;;;;;;;8.33;4.13;;;;;;;25.01;64.58;98625.09;6246065;23;20149;-85
2023/07/06 04:17:36;;;;;;;14.07;4.40;;;;;;;25.05;64.48;98616.50;6246061;23;20156;-85
2023/07/06 04:20:08;;;;;;;6.60;4.20;;;;;;;24.98;64.96;98618.28;6246387;23;20152;-85
2023/07/06 04:22:34;;;;;;;8.93;4.60;;;;;;;25.11;64.54;98627.50;6246771;23;20157;-85
2023/07/06 04:24:59;;;;;;;8.20;3.57;;;;;;;25.16;64.54;98625.94;6245950;23;20180;-85
2023/07/06 04:27:25;;;;;;;9.80;4.07;;;;;;;25.05;64.88;98629.91;6245827;23;20149;-85
2023/07/06 04:29:51;;;;;;;7.00;4.30;;;;;;;25.20;64.10;98637.97;6219417;23;20181;-85
2023/07/06 04:32:16;;;;;;;8.70;3.93;;;;;;;25.35;64.02;98636.13;6246294;23;20210;-85
2023/07/06 04:34:42;;;;;;;6.27;3.70;;;;;;;25.46;64.02;98638.38;6246581;23;20153;-85
2023/07/06 04:37:09;;;;;;;7.43;4.63;;;;;;;25.58;63.31;98646.75;6246221;23;20571;-85
2023/07/06 04:39:37;;;;;;;7.97;4.40;;;;;;;25.70;62.96;98649.81;6219545;23;20165;-85
2023/07/06 04:42:03;;;;;;;8.20;4.10;;;;;;;25.83;63.15;98653.47;6219417;23;20157;-85
2023/07/06 04:44:29;;;;;;;6.83;4.43;;;;;;;25.92;62.76;98648.81;6246202;23;20483;-85
2023/07/06 04:46:58;;;;;;;7.33;3.90;;;;;;;26.04;62.51;98652.69;6245923;23;20231;-85
2023/07/06 04:49:24;;;;;;;7.70;3.83;;;;;;;26.16;62.11;98659.25;6246079;23;20230;-85
2023/07/06 04:51:49;;;;;;;7.00;4.30;;;;;;;26.29;61.70;98656.69;6219387;23;20153;-85
2023/07/06 04:54:15;;;;;;;8.53;4.73;;;;;;;26.32;62.11;98663.53;6246183;23;20198;-85
2023/07/06 04:56:41;;;;;;;8.07;4.30;;;;;;;26.30;60.95;98669.09;6245917;23;20565;-87
2023/07/06 04:59:06;;;;;;;9.00;4.50;;;;;;;26.38;61.10;98665.47;6219421;23;20161;-83
2023/07/06 05:01:32;;;;;;;7.00;4.40;;;;;;;26.37;61.90;98663.78;6219756;23;20461;-84
2023/07/06 05:03:57;;;;;;;7.27;4.50;;;;;;;26.46;61.61;98662.66;6219379;23;20149;-85
2023/07/06 05:06:24;;;;;;;8.37;4.27;;;;;;;26.57;60.94;98670.19;6245834;23;20161;-85
2023/07/06 05:08:50;;;;;;;7.13;4.20;;;;;;;26.58;61.59;98667.31;6246739;23;20173;-85
2023/07/06 05:11:15;;;;;;;9.33;3.97;;;;;;;26.72;61.60;98666.41;6248158;23;20153;-85
2023/07/06 05:13:41;;;;;;;9.03;4.43;;;;;;;26.99;60.90;98670.13;6221237;23;20514;-86
2023/07/06 05:16:07;;;;;;;7.03;4.07;;;;;;;27.20;59.59;98667.38;6248048;23;20224;-85
2023/07/06 05:18:32;;;;;;;7.13;4.00;;;;;;;27.56;59.34;98666.38;6247699;23;20150;-86
2023/07/06 05:20:57;;;;;;;12.67;4.83;;;;;;;27.74;57.80;98669.38;6221164;23;20185;-85
2023/07/06 05:23:28;;;;;;;6.80;3.83;;;;;;;28.18;57.27;98669.75;6248342;23;20145;-86
2023/07/06 05:26:03;;;;;;;7.80;4.20;;;;;;;28.62;55.39;98670.06;6247676;23;20133;-85
2023/07/06 05:28:30;;;;;;;8.43;4.40;;;;;;;28.76;54.28;98678.16;6247577;23;20133;-85
2023/07/06 05:30:56;;;;;;;7.50;3.85;;;;;;;28.95;52.75;98669.22;6247792;23;20569;-86
2023/07/06 05:33:21;;;;;;;8.00;3.60;;;;;;;28.69;53.53;98674.63;6247581;23;20156;-85
2023/07/06 05:35:47;;;;;;;9.63;4.03;;;;;;;28.76;54.10;98670.88;6248197;23;20199;-85
2023/07/06 05:38:13;;;;;;;6.53;3.65;;;;;;;28.73;54.51;98670.47;6247833;23;20596;-86
2023/07/06 05:40:40;;;;;;;8.82;4.18;;;;;;;28.64;53.52;98670.66;6247362;23;20152;-86
2023/07/06 05:43:06;;;;;;;6.60;4.10;;;;;;;28.75;54.91;98676.50;6222045;23;20264;-85
2023/07/06 05:45:31;;;;;;;8.32;4.72;;;;;;;28.58;54.99;98679.56;6221031;23;20569;-86
2023/07/06 05:47:56;;;;;;;7.20;4.10;;;;;;;28.55;54.26;98677.28;6247376;23;20149;-87
2023/07/06 05:50:23;;;;;;;8.75;4.32;;;;;;;28.44;54.79;98677.88;6247977;23;20235;-86
2023/07/06 05:52:49;;;;;;;8.40;4.20;;;;;;;28.46;55.63;98675.81;6220923;23;20159;-85
2023/07/06 05:55:15;;;;;;;6.40;3.95;;;;;;;28.46;55.70;98670.41;6220875;23;20167;-84
2023/07/06 05:57:41;;;;;;;7.00;4.15;;;;;;;28.53;55.00;98676.66;6247355;23;20156;-83
2023/07/06 06:00:09;;;;;;;6.80;3.78;;;;;;;28.65;55.38;98676.91;6220890;23;20153;-83
2023/07/06 06:02:36;;;;;;;7.25;4.10;;;;;;;28.45;55.38;98679.56;6247616;23;20145;-84
2023/07/06 06:05:02;;;;;;;8.75;4.60;;;;;;;28.60;55.71;98677.50;6220829;23;20163;-85
2023/07/06 06:07:31;;;;;;;8.10;4.63;;;;;;;28.65;54.50;98674.19;6220620;23;20181;-83
2023/07/06 06:09:57;;;;;;;11.02;4.28;;;;;;;28.68;54.89;98672.97;6247107;23;20185;-83
2023/07/06 06:12:23;;;;;;;12.50;3.85;;;;;;;28.77;54.87;98669.88;6220688;23;20149;-84
2023/07/06 06:14:50;;;;;;;7.18;3.88;;;;;;;28.84;54.31;98667.97;6247161;23;20232;-83
2023/07/06 06:17:17;;;;;;;7.88;3.75;;;;;;;29.04;56.25;98673.34;6247124;23;20500;-83
2023/07/06 06:19:45;;;;;;;7.50;3.83;;;;;;;28.89;54.24;98672.75;6246520;23;20223;-84
2023/07/06 06:22:12;;;;;;;8.15;3.72;;;;;;;29.14;54.64;98673.78;6247389;23;20176;-83
2023/07/06 06:24:38;;;;;;;6.80;4.07;;;;;;;29.31;53.71;98674.19;6220637;23;20157;-84
2023/07/06 06:27:04;;;;;;;5.00;3.35;;;;;;;29.70;52.90;98666.78;6247370;23;20442;-84
2023/07/06 06:29:32;;;;;;;8.77;4.22;;;;;;;29.85;51.01;98673.84;6247590;23;20256;-85
2023/07/06 06:31:58;;;;;;;8.18;4.05;;;;;;;30.07;50.62;98670.59;6246989;23;20220;-84
2023/07/06 06:34:24;;;;;;;7.70;4.25;;;;;;;30.34;51.48;98671.28;6246872;23;20156;-84
2023/07/06 06:36:49;;;;;;;6.57;3.90;;;;;;;30.67;50.96;98676.47;6246979;23;20149;-84
2023/07/06 06:39:14;;;;;;;9.48;4.25;;;;;;;30.89;48.80;98670.47;6246739;23;20573;-84
2023/07/06 06:41:41;;;;;;;5.32;3.42;;;;;;;31.02;48.66;98669.56;6246861;23;20160;-84
2023/07/06 06:44:07;;;;;;;6.35;3.60;;;;;;;31.09;47.20;98664.06;6246902;23;20149;-85
2023/07/06 06:46:32;;;;;;;6.07;3.97;;;;;;;31.33;46.72;98663.22;6247569;23;20149;-85
2023/07/06 06:48:58;;;;;;;5.72;3.42;;;;;;;31.35;46.00;98664.63;6247104;23;20197;-84
2023/07/06 06:51:24;;;;;;;5.82;3.53;;;;;;;31.44;47.02;98660.59;6246841;23;20145;-85
2023/07/06 06:53:49;;;;;;;7.43;3.72;;;;;;;31.63;46.84;98658.72;6246793;23;20152;-84
2023/07/06 06:56:15;;;;;;;5.70;3.17;;;;;;;31.65;44.71;98667.47;6220286;23;20161;-84
2023/07/06 06:58:41;;;;;;;8.77;3.35;;;;;;;31.80;44.84;98664.34;6246720;23;20149;-85
2023/07/06 07:01:08;;;;;;;6.35;3.03;;;;;;;31.99;44.12;98658.72;6247049;23;20179;-85
2023/07/06 07:03:34;;;;;;;5.88;3.13;;;;;;;32.05;42.72;98662.41;6220264;23;20163;-85
2023/07/06 07:06:03;;;;;;;6.25;3.42;;;;;;;32.14;44.05;98667.28;6246641;23;20145;-84
2023/07/06 07:08:29;;;;;;;6.30;3.20;;;;;;;32.26;42.85;98656.44;6220085;23;20149;-87
2023/07/06 07:10:58;;;;;;;6.82;3.35;;;;;;;32.42;43.14;98663.09;6246612;23;20227;-85
2023/07/06 07:13:27;;;;;;;6.22;3.28;;;;;;;32.60;42.14;98668.50;6246971;23;20651;-86
2023/07/06 07:15:53;;;;;;;7.72;3.50;;;;;;;32.86;43.07;98667.25;6246601;23;20156;-85
2023/07/06 07:18:21;;;;;;;6.95;3.13;;;;;;;33.00;41.75;98669.50;6246565;23;20149;-85
2023/07/06 07:20:51;;;;;;;6.28;3.65;;;;;;;32.89;41.44;98677.66;6247250;23;20172;-85
2023/07/06 07:23:17;;;;;;;5.88;3.75;;;;;;;32.88;41.14;98671.38;6220040;23;20150;-86
2023/07/06 07:25:42;;;;;;;8.38;3.22;;;;;;;32.81;40.79;98670.66;6246838;23;20156;-86
2023/07/06 07:28:08;;;;;;;5.57;3.20;;;;;;;32.72;41.73;98678.34;6247167;23;20443;-85
2023/07/06 07:30:34;;;;;;;6.65;3.15;;;;;;;32.83;41.99;98668.56;6247046;23;20251;-85
2023/07/06 07:33:00;;;;;;;5.55;3.53;;;;;;;33.09;41.77;98664.56;6246405;23;20156;-86
2023/07/06 07:35:26;;;;;;;8.10;2.90;;;;;;;33.23;40.55;98669.53;6246379;23;20148;-86
2023/07/06 07:37:52;;;;;;;6.88;2.88;;;;;;;33.45;38.86;98682.50;6246380;23;20233;-86
2023/07/06 07:40:19;;;;;;;5.13;2.90;;;;;;;33.71;41.65;98671.97;6246274;23;20216;-86
2023/07/06 07:42:46;;;;;;;6.30;3.10;;;;;;;33.61;39.92;98670.94;6219861;23;20232;-86
2023/07/06 07:45:13;;;;;;;6.25;2.90;;;;;;;33.86;39.61;98669.56;6219805;23;20648;-85
2023/07/06 07:47:39;;;;;;;10.32;2.92;;;;;;;34.07;39.13;98667.28;6219791;23;20168;-86
2023/07/06 07:50:06;;;;;;;5.85;3.28;;;;;;;34.14;38.51;98660.63;6246515;23;20499;-86
2023/07/06 07:52:31;;;;;;;7.57;3.35;;;;;;;34.37;38.09;98660.53;6219815;23;20157;-86
2023/07/06 07:54:57;;;;;;;4.43;2.40;;;;;;;34.57;39.30;98652.72;6219760;23;20562;-86
2023/07/06 07:57:22;;;;;;;4.75;2.55;;;;;;;34.87;34.80;98657.03;6219812;23;20149;-86
2023/07/06 07:59:51;;;;;;;4.85;2.60;;;;;;;35.12;34.44;98654.72;6246198;23;20141;-86
2023/07/06 08:02:17;;;;;;;3.88;2.08;;;;;;;35.07;36.02;98660.09;6219669;23;20200;-86
2023/07/06 08:04:43;;;;;;;5.90;2.47;;;;;;;34.91;37.55;98660.91;6246142;23;20291;-86
2023/07/06 08:07:08;;;;;;;4.85;2.78;;;;;;;34.96;36.40;98656.34;6246257;23;20203;-86
2023/07/06 08:09:35;;;;;;;4.15;2.55;;;;;;;35.05;37.24;98654.91;6246004;23;20183;-87
2023/07/06 08:12:03;;;;;;;4.90;2.90;;;;;;;35.50;36.28;98648.47;6217851;23;20156;-86
2023/07/06 08:14:37;;;;;;;6.55;2.55;;;;;;;35.57;35.66;98649.94;6218096;23;20490;-86
2023/07/06 08:17:04;;;;;;;4.78;2.83;;;;;;;35.59;35.07;98644.22;6244603;23;20155;-87
2023/07/06 08:19:32;;;;;;;4.95;2.58;;;;;;;35.81;36.29;98650.50;6244915;23;20141;-87
2023/07/06 08:22:00;;;;;;;5.38;2.70;;;;;;;35.83;34.84;98642.91;6217933;23;20180;-86
2023/07/06 08:24:27;;;;;;;5.43;2.75;;;;;;;35.86;36.85;98641.56;6244586;23;20180;-86
2023/07/06 08:26:52;;;;;;;5.70;2.80;;;;;;;36.20;35.94;98641.16;6219417;23;20162;-87
2023/07/06 08:29:18;;;;;;;6.05;2.80;;;;;;;36.20;35.17;98645.78;6219512;23;20694;-86
2023/07/06 08:31:45;;;;;;;4.78;2.75;;;;;;;35.99;35.59;98635.72;6245938;23;20597;-86
2023/07/06 08:34:12;;;;;;;4.90;2.60;;;;;;;35.72;34.76;98633.75;6219564;23;20153;-86
2023/07/06 08:36:37;;;;;;;4.85;3.17;;;;;;;35.56;35.09;98640.09;6245948;23;20600;-86
2023/07/06 08:39:05;;;;;;;8.45;2.45;;;;;;;35.73;34.70;98638.16;6219165;23;20200;-86
2023/07/06 08:41:38;;;;;;;5.88;2.53;;;;;;;35.72;35.92;98639.22;6246622;23;20245;-86
2023/07/06 08:44:07;;;;;;;8.05;2.70;;;;;;;36.09;35.70;98642.13;6221416;23;20196;-86
2023/07/06 08:46:38;;;;;;;4.93;2.42;;;;;;;36.15;35.72;98641.13;6221590;23;20160;-86
2023/07/06 08:49:17;;;;;;;4.82;2.42;;;;;;;36.42;34.99;98640.28;6248293;23;20194;-86
2023/07/06 08:51:42;;;;;;;5.30;2.70;;;;;;;36.47;34.68;98638.44;6248387;23;20133;-86
2023/07/06 08:54:19;;;;;;;4.72;2.92;;;;;;;36.63;32.64;98626.59;6247953;23;20557;-86
2023/07/06 08:56:47;;;;;;;4.88;2.78;;;;;;;36.74;34.89;98636.50;6221380;23;20218;-87
2023/07/06 08:59:20;;;;;;;5.07;2.95;;;;;;;36.69;34.67;98636.44;6247902;23;20474;-87
2023/07/06 09:01:47;;;;;;;5.15;2.55;;;;;;;36.91;32.83;98634.44;6221455;23;20275;-86
2023/07/06 09:04:15;;;;;;;5.45;3.13;;;;;;;37.14;32.76;98633.25;6221333;23;20153;-86
2023/07/06 09:06:47;;;;;;;4.93;2.42;;;;;;;37.20;32.67;98625.91;6248191;23;20156;-86
2023/07/06 09:09:13;;;;;;;7.50;3.25;;;;;;;37.22;31.16;98626.47;6248833;23;20168;-86
2023/07/06 09:11:42;;;;;;;3.78;2.28;;;;;;;37.18;30.65;98628.09;6221416;23;20153;-87
2023/07/06 09:14:10;;;;;;;4.55;2.95;;;;;;;37.13;32.14;98628.91;6247740;23;20145;-87
2023/07/06 09:16:48;;;;;;;6.65;3.05;;;;;;;37.07;32.47;98626.38;6221612;23;20157;-87
2023/07/06 09:19:14;;;;;;;4.10;2.42;;;;;;;37.09;31.46;98624.19;6221365;23;20150;-87
2023/07/06 09:21:44;;;;;;;4.30;2.60;;;;;;;37.15;31.55;98625.88;6221262;23;20168;-87
2023/07/06 09:24:11;;;;;;;4.93;2.70;;;;;;;37.26;33.23;98619.41;6221151;23;20181;-86
2023/07/06 09:26:38;;;;;;;4.72;2.50;;;;;;;37.25;31.92;98620.47;6247627;23;20145;-86
2023/07/06 09:29:13;;;;;;;4.07;2.75;;;;;;;37.34;30.89;98616.16;6221338;23;20269;-86
2023/07/06 09:31:39;;;;;;;4.15;2.38;;;;;;;37.08;30.86;98615.22;6248259;23;20153;-88
2023/07/06 09:34:10;;;;;;;3.72;2.38;;;;;;;37.15;31.79;98613.03;6247901;23;20149;-86
2023/07/06 09:36:36;;;;;;;6.88;2.42;;;;;;;37.30;34.15;98620.50;6222546;23;20145;-86
2023/07/06 09:39:08;;;;;;;3.92;2.35;;;;;;;37.27;33.05;98612.81;6247255;23;20603;-86
2023/07/06 09:41:37;;;;;;;3.75;2.33;;;;;;;37.32;31.03;98610.13;6247644;23;20157;-88
2023/07/06 09:44:05;;;;;;;4.10;2.38;;;;;;;37.37;30.51;98615.63;6247406;23;20150;-86
2023/07/06 09:46:35;;;;;;;7.28;2.60;;;;;;;37.21;30.58;98605.69;6247430;23;20569;-87
2023/07/06 09:49:01;;;;;;;4.22;2.58;;;;;;;37.23;30.37;98598.88;6247405;23;20200;-88
2023/07/06 09:51:36;;;;;;;3.60;2.30;;;;;;;37.26;30.62;98597.53;6221317;23;20469;-86
2023/07/06 09:54:17;;;;;;;4.07;2.45;;;;;;;37.28;30.73;98595.34;6247950;23;20137;-85
2023/07/06 09:56:43;;;;;;;8.02;2.45;;;;;;;37.45;31.44;98599.56;6220645;23;20155;-86
2023/07/06 09:59:11;;;;;;;4.95;2.40;;;;;;;37.40;30.24;98593.19;6247687;23;20220;-87
2023/07/06 10:01:48;;;;;;;4.82;2.63;;;;;;;37.31;30.29;98592.91;6220821;23;20239;-86
2023/07/06 10:04:39;;;;;;;3.83;2.25;;;;;;;37.44;30.20;98587.00;6247335;23;20145;-85
2023/07/06 10:07:33;;;;;;;3.83;2.40;;;;;;;37.45;30.55;98582.31;6247985;23;20137;-85
2023/07/06 10:10:06;;;;;;;4.57;2.03;;;;;;;37.75;29.92;98585.19;6227535;23;20267;-87
2023/07/06 10:12:46;;;;;;;4.95;1.83;;;;;;;37.79;30.14;98594.47;6220684;23;20163;-86
2023/07/06 10:15:38;;;;;;;3.72;1.98;;;;;;;37.93;30.19;98581.97;6220678;23;20177;-86
2023/07/06 10:18:13;;;;;;;3.58;2.03;;;;;;;37.97;30.04;98582.25;6247869;23;20172;-86
2023/07/06 10:21:04;;;;;;;4.00;2.25;;;;;;;38.22;30.19;98575.97;6247356;23;20181;-86
2023/07/06 10:23:32;;;;;;;4.40;2.20;;;;;;;38.24;28.47;98571.88;6247408;23;20137;-86
2023/07/06 10:26:10;;;;;;;5.07;2.70;;;;;;;38.48;29.14;98566.72;6247360;23;20163;-86
2023/07/06 10:28:46;;;;;;;3.50;2.38;;;;;;;38.28;31.17;98575.72;6247295;23;20156;-86
2023/07/06 10:31:16;;;;;;;3.35;2.13;;;;;;;38.03;30.19;98570.22;6247449;23;20129;-86
2023/07/06 10:34:17;;;;;;;3.67;2.05;;;;;;;38.31;29.00;98575.22;6247592;23;20163;-86
2023/07/06 10:36:44;;;;;;;5.20;2.40;;;;;;;38.35;28.68;98565.34;6072312;23;20170;-86
2023/07/06 10:39:25;;;;;;;5.50;2.47;;;;;;;38.47;31.13;98567.81;6190928;23;20558;-86
2023/07/06 10:42:05;;;;;;;5.50;2.28;;;;;;;38.50;28.88;98561.78;6247608;23;20156;-86
2023/07/06 10:44:46;;;;;;;4.03;2.25;;;;;;;38.38;29.19;98556.59;6246968;23;20514;-87
2023/07/06 10:47:43;;;;;;;6.32;2.72;;;;;;;38.06;29.52;98558.72;6247602;23;20172;-86
2023/07/06 10:50:08;;;;;;;7.03;2.60;;;;;;;37.94;28.71;98553.53;6190727;23;20188;-86
2023/07/06 10:52:40;;;;;;;2.88;1.80;;;;;;;38.41;27.68;98552.47;6220391;23;20157;-86
2023/07/06 10:55:23;;;;;;;6.80;2.30;;;;;;;38.34;28.58;98555.47;6246567;23;20179;-86
2023/07/06 10:57:57;;;;;;;4.05;2.40;;;;;;;38.38;28.16;98553.03;6247499;23;20144;-86
2023/07/06 11:00:32;;;;;;;6.70;2.20;;;;;;;38.46;29.61;98542.34;6220271;23;20151;-86
2023/07/06 11:02:59;;;;;;;3.88;1.98;;;;;;;38.79;27.68;98530.00;6220359;23;20606;-86
2023/07/06 11:05:32;;;;;;;4.57;2.38;;;;;;;38.85;29.80;98528.06;6246674;23;20191;-86
2023/07/06 11:08:05;;;;;;;4.38;2.03;;;;;;;38.70;28.57;98526.16;6246509;23;20282;-86
2023/07/06 11:10:44;;;;;;;3.55;2.20;;;;;;;38.86;30.18;98530.53;6246900;23;20315;-86
2023/07/06 11:13:09;;;;;;;4.25;1.67;;;;;;;38.95;30.06;98520.63;6247012;23;20140;-85
2023/07/06 11:16:04;;;;;;;4.05;2.20;;;;;;;39.14;29.43;98510.72;6246598;23;20145;-86
2023/07/06 11:18:37;;;;;;;4.80;2.10;;;;;;;39.12;28.73;98518.41;6216512;23;20541;-85
2023/07/06 11:21:31;;;;;;;2.83;1.80;;;;;;;38.70;27.68;98515.19;6219919;23;20167;-85
2023/07/06 11:24:06;;;;;;;5.55;2.13;;;;;;;38.77;28.38;98514.94;6246888;23;20140;-85
2023/07/06 11:26:41;;;;;;;3.50;1.98;;;;;;;38.84;28.34;98510.78;6246942;23;20133;-85
2023/07/06 11:29:07;;;;;;;5.13;2.25;;;;;;;39.12;29.18;98501.94;6247073;23;20596;-86
2023/07/06 11:31:55;;;;;;;3.42;2.22;;;;;;;39.48;27.83;98499.06;6246285;23;20145;-86
2023/07/06 11:34:32;;;;;;;4.97;2.00;;;;;;;39.63;28.17;98508.03;6247058;23;20141;-86
2023/07/06 11:37:12;;;;;;;4.88;2.33;;;;;;;39.53;28.12;98502.59;6246761;23;20129;-86
2023/07/06 11:39:49;;;;;;;4.00;2.50;;;;;;;39.37;28.98;98498.28;6246444;23;20183;-85
2023/07/06 11:42:36;;;;;;;3.28;2.05;;;;;;;39.36;28.70;98496.66;6246700;23;20141;-86
2023/07/06 11:45:14;;;;;;;3.63;2.03;;;;;;;39.71;28.91;98498.38;6246706;23;20141;-86
2023/07/06 11:47:58;;;;;;;3.95;2.42;;;;;;;39.17;27.81;98490.97;6219885;23;20485;-85